sensor_id;sensor_type;location;lat;lon;timestamp;temperature;humidity
65421;DHT22;52028;50.658;14.004;2023-02-15T00:00:23;4.14;85.01
65421;DHT22;52028;50.658;14.004;2023-02-15T00:02:48;4.02;85.24
65421;DHT22;52028;50.658;14.004;2023-02-15T00:05:14;3.94;85.53
65421;DHT22;52028;50.658;14.004;2023-02-15T00:07:39;3.89;85.39
65421;DHT22;52028;50.658;14.004;2023-02-15T00:10:05;3.89;85.62
65421;DHT22;52028;50.658;14.004;2023-02-15T00:12:31;3.75;86.14
65421;DHT22;52028;50.658;14.004;2023-02-15T00:14:56;3.74;86.38
65421;DHT22;52028;50.658;14.004;2023-02-15T00:17:21;3.71;86.43
65421;DHT22;52028;50.658;14.004;2023-02-15T00:19:47;3.61;86.36
65421;DHT22;52028;50.658;14.004;2023-02-15T00:22:12;3.62;86.66
65421;DHT22;52028;50.658;14.004;2023-02-15T00:24:38;3.61;86.56
65421;DHT22;52028;50.658;14.004;2023-02-15T00:27:03;3.58;86.77
65421;DHT22;52028;50.658;14.004;2023-02-15T00:29:29;3.50;86.91
65421;DHT22;52028;50.658;14.004;2023-02-15T00:31:54;3.45;87.05
65421;DHT22;52028;50.658;14.004;2023-02-15T00:34:22;3.41;86.87
65421;DHT22;52028;50.658;14.004;2023-02-15T00:36:48;3.35;86.79
65421;DHT22;52028;50.658;14.004;2023-02-15T00:39:15;3.32;86.98
65421;DHT22;52028;50.658;14.004;2023-02-15T00:41:40;3.40;87.20
65421;DHT22;52028;50.658;14.004;2023-02-15T00:44:06;3.44;87.03
65421;DHT22;52028;50.658;14.004;2023-02-15T00:46:32;3.44;87.10
65421;DHT22;52028;50.658;14.004;2023-02-15T00:48:58;3.38;86.66
65421;DHT22;52028;50.658;14.004;2023-02-15T00:51:23;3.42;86.54
65421;DHT22;52028;50.658;14.004;2023-02-15T00:53:49;3.45;86.43
65421;DHT22;52028;50.658;14.004;2023-02-15T00:56:15;3.45;86.04
65421;DHT22;52028;50.658;14.004;2023-02-15T00:58:40;3.44;85.98
65421;DHT22;52028;50.658;14.004;2023-02-15T01:01:08;3.42;86.18
65421;DHT22;52028;50.658;14.004;2023-02-15T01:03:34;3.41;86.50
65421;DHT22;52028;50.658;14.004;2023-02-15T01:06:00;3.34;86.61
65421;DHT22;52028;50.658;14.004;2023-02-15T01:08:26;3.38;86.72
65421;DHT22;52028;50.658;14.004;2023-02-15T01:10:52;3.42;86.60
65421;DHT22;52028;50.658;14.004;2023-02-15T01:13:17;3.40;87.21
65421;DHT22;52028;50.658;14.004;2023-02-15T01:15:43;3.40;87.10
65421;DHT22;52028;50.658;14.004;2023-02-15T01:18:10;3.35;87.08
65421;DHT22;52028;50.658;14.004;2023-02-15T01:20:37;3.34;87.00
65421;DHT22;52028;50.658;14.004;2023-02-15T01:23:04;3.38;87.12
65421;DHT22;52028;50.658;14.004;2023-02-15T01:25:30;3.37;87.08
65421;DHT22;52028;50.658;14.004;2023-02-15T01:27:56;3.45;86.43
65421;DHT22;52028;50.658;14.004;2023-02-15T01:30:21;3.44;86.32
65421;DHT22;52028;50.658;14.004;2023-02-15T01:32:46;3.34;86.54
65421;DHT22;52028;50.658;14.004;2023-02-15T01:35:12;3.37;86.81
65421;DHT22;52028;50.658;14.004;2023-02-15T01:37:37;3.34;86.29
65421;DHT22;52028;50.658;14.004;2023-02-15T01:40:08;3.35;86.43
65421;DHT22;52028;50.658;14.004;2023-02-15T01:42:34;3.42;86.43
65421;DHT22;52028;50.658;14.004;2023-02-15T01:45:29;3.40;86.07
65421;DHT22;52028;50.658;14.004;2023-02-15T01:50:44;3.52;85.72
65421;DHT22;52028;50.658;14.004;2023-02-15T01:53:21;3.47;85.64
65421;DHT22;52028;50.658;14.004;2023-02-15T01:55:56;3.48;85.55
65421;DHT22;52028;50.658;14.004;2023-02-15T01:58:25;3.50;85.52
65421;DHT22;52028;50.658;14.004;2023-02-15T02:00:51;3.44;85.65
65421;DHT22;52028;50.658;14.004;2023-02-15T02:03:16;3.38;85.49
65421;DHT22;52028;50.658;14.004;2023-02-15T02:05:42;3.41;85.64
65421;DHT22;52028;50.658;14.004;2023-02-15T02:08:08;3.44;85.80
65421;DHT22;52028;50.658;14.004;2023-02-15T02:10:36;3.40;85.74
65421;DHT22;52028;50.658;14.004;2023-02-15T02:13:04;3.38;85.78
65421;DHT22;52028;50.658;14.004;2023-02-15T02:15:41;3.34;86.05
65421;DHT22;52028;50.658;14.004;2023-02-15T02:18:15;3.21;86.21
65421;DHT22;52028;50.658;14.004;2023-02-15T02:23:25;3.07;86.74
65421;DHT22;52028;50.658;14.004;2023-02-15T02:31:22;3.04;86.47
65421;DHT22;52028;50.658;14.004;2023-02-15T02:45:00;2.89;86.62
65421;DHT22;52028;50.658;14.004;2023-02-15T02:47:32;2.95;86.82
65421;DHT22;52028;50.658;14.004;2023-02-15T02:50:01;2.95;86.77
65421;DHT22;52028;50.658;14.004;2023-02-15T02:52:57;2.88;86.68
65421;DHT22;52028;50.658;14.004;2023-02-15T02:55:40;2.82;86.97
65421;DHT22;52028;50.658;14.004;2023-02-15T02:58:33;2.89;87.22
65421;DHT22;52028;50.658;14.004;2023-02-15T03:03:38;2.84;86.67
65421;DHT22;52028;50.658;14.004;2023-02-15T03:06:10;2.81;86.67
65421;DHT22;52028;50.658;14.004;2023-02-15T03:08:42;2.72;86.97
65421;DHT22;52028;50.658;14.004;2023-02-15T03:11:09;2.76;86.95
65421;DHT22;52028;50.658;14.004;2023-02-15T03:13:36;2.84;86.80
65421;DHT22;52028;50.658;14.004;2023-02-15T03:16:04;2.89;86.56
65421;DHT22;52028;50.658;14.004;2023-02-15T03:18:57;2.95;86.47
65421;DHT22;52028;50.658;14.004;2023-02-15T03:21:34;2.97;86.36
65421;DHT22;52028;50.658;14.004;2023-02-15T03:24:06;2.99;86.43
65421;DHT22;52028;50.658;14.004;2023-02-15T03:26:34;3.02;86.21
65421;DHT22;52028;50.658;14.004;2023-02-15T03:29:02;3.14;86.07
65421;DHT22;52028;50.658;14.004;2023-02-15T03:31:31;3.12;85.67
65421;DHT22;52028;50.658;14.004;2023-02-15T03:34:08;3.16;85.70
65421;DHT22;52028;50.658;14.004;2023-02-15T03:39:09;3.13;85.92
65421;DHT22;52028;50.658;14.004;2023-02-15T03:41:40;3.21;85.62
65421;DHT22;52028;50.658;14.004;2023-02-15T03:44:15;3.26;85.56
65421;DHT22;52028;50.658;14.004;2023-02-15T03:46:48;3.14;85.78
65421;DHT22;52028;50.658;14.004;2023-02-15T03:51:44;3.31;85.21
65421;DHT22;52028;50.658;14.004;2023-02-15T03:54:31;3.24;84.99
65421;DHT22;52028;50.658;14.004;2023-02-15T03:57:18;3.21;84.99
65421;DHT22;52028;50.658;14.004;2023-02-15T04:00:15;3.12;85.06
65421;DHT22;52028;50.658;14.004;2023-02-15T04:05:31;2.92;85.12
65421;DHT22;52028;50.658;14.004;2023-02-15T04:07:57;2.89;85.51
65421;DHT22;52028;50.658;14.004;2023-02-15T04:10:22;2.84;85.34
65421;DHT22;52028;50.658;14.004;2023-02-15T04:13:06;2.75;85.65
65421;DHT22;52028;50.658;14.004;2023-02-15T04:15:31;2.71;85.86
65421;DHT22;52028;50.658;14.004;2023-02-15T04:18:15;2.65;85.98
65421;DHT22;52028;50.658;14.004;2023-02-15T04:20:44;2.64;85.87
65421;DHT22;52028;50.658;14.004;2023-02-15T04:23:28;2.72;85.72
65421;DHT22;52028;50.658;14.004;2023-02-15T04:26:11;2.65;85.68
65421;DHT22;52028;50.658;14.004;2023-02-15T04:28:37;2.69;85.64
65421;DHT22;52028;50.658;14.004;2023-02-15T04:31:02;2.72;85.67
65421;DHT22;52028;50.658;14.004;2023-02-15T04:33:27;2.81;85.25
65421;DHT22;52028;50.658;14.004;2023-02-15T04:35:53;2.82;84.85
65421;DHT22;52028;50.658;14.004;2023-02-15T04:38:18;2.72;85.02
65421;DHT22;52028;50.658;14.004;2023-02-15T04:40:44;2.64;85.27
65421;DHT22;52028;50.658;14.004;2023-02-15T04:43:09;2.62;85.51
65421;DHT22;52028;50.658;14.004;2023-02-15T04:45:34;2.66;85.35
65421;DHT22;52028;50.658;14.004;2023-02-15T04:48:00;2.61;85.14
65421;DHT22;52028;50.658;14.004;2023-02-15T04:50:25;2.54;85.24
65421;DHT22;52028;50.658;14.004;2023-02-15T04:52:50;2.51;85.50
65421;DHT22;52028;50.658;14.004;2023-02-15T04:55:16;2.48;85.62
65421;DHT22;52028;50.658;14.004;2023-02-15T04:57:41;2.54;85.67
65421;DHT22;52028;50.658;14.004;2023-02-15T05:00:07;2.55;85.65
65421;DHT22;52028;50.658;14.004;2023-02-15T05:02:33;2.52;85.45
65421;DHT22;52028;50.658;14.004;2023-02-15T05:04:59;2.58;85.31
65421;DHT22;52028;50.658;14.004;2023-02-15T05:07:24;2.57;85.22
65421;DHT22;52028;50.658;14.004;2023-02-15T05:09:49;2.61;85.44
65421;DHT22;52028;50.658;14.004;2023-02-15T05:12:15;2.57;85.12
65421;DHT22;52028;50.658;14.004;2023-02-15T05:14:40;2.59;85.08
65421;DHT22;52028;50.658;14.004;2023-02-15T05:17:05;2.52;85.28
65421;DHT22;52028;50.658;14.004;2023-02-15T05:19:31;2.47;85.20
65421;DHT22;52028;50.658;14.004;2023-02-15T05:21:56;2.38;85.50
65421;DHT22;52028;50.658;14.004;2023-02-15T05:24:22;2.30;85.85
65421;DHT22;52028;50.658;14.004;2023-02-15T05:27:05;2.34;86.02
65421;DHT22;52028;50.658;14.004;2023-02-15T05:29:49;2.24;86.25
65421;DHT22;52028;50.658;14.004;2023-02-15T05:32:15;2.20;86.48
65421;DHT22;52028;50.658;14.004;2023-02-15T05:34:40;2.19;86.44
65421;DHT22;52028;50.658;14.004;2023-02-15T05:37:06;2.07;86.48
65421;DHT22;52028;50.658;14.004;2023-02-15T05:39:32;2.07;86.70
65421;DHT22;52028;50.658;14.004;2023-02-15T05:41:59;2.07;86.60
65421;DHT22;52028;50.658;14.004;2023-02-15T05:44:24;2.03;86.81
65421;DHT22;52028;50.658;14.004;2023-02-15T05:46:50;2.03;86.90
65421;DHT22;52028;50.658;14.004;2023-02-15T05:49:15;2.05;86.97
65421;DHT22;52028;50.658;14.004;2023-02-15T05:51:40;2.09;86.98
65421;DHT22;52028;50.658;14.004;2023-02-15T05:54:06;2.13;86.78
65421;DHT22;52028;50.658;14.004;2023-02-15T05:56:31;2.13;86.83
65421;DHT22;52028;50.658;14.004;2023-02-15T05:58:57;2.17;86.84
65421;DHT22;52028;50.658;14.004;2023-02-15T06:01:22;2.22;86.58
65421;DHT22;52028;50.658;14.004;2023-02-15T06:03:48;2.19;86.38
65421;DHT22;52028;50.658;14.004;2023-02-15T06:06:14;2.17;86.33
65421;DHT22;52028;50.658;14.004;2023-02-15T06:08:40;2.24;86.14
65421;DHT22;52028;50.658;14.004;2023-02-15T06:11:05;2.26;86.08
65421;DHT22;52028;50.658;14.004;2023-02-15T06:13:32;2.22;86.15
65421;DHT22;52028;50.658;14.004;2023-02-15T06:15:58;2.16;86.16
65421;DHT22;52028;50.658;14.004;2023-02-15T06:18:23;2.16;86.36
65421;DHT22;52028;50.658;14.004;2023-02-15T06:20:49;2.10;86.45
65421;DHT22;52028;50.658;14.004;2023-02-15T06:23:14;2.02;86.52
65421;DHT22;52028;50.658;14.004;2023-02-15T06:25:40;2.05;86.80
65421;DHT22;52028;50.658;14.004;2023-02-15T06:28:05;2.07;86.54
65421;DHT22;52028;50.658;14.004;2023-02-15T06:30:30;2.09;86.34
65421;DHT22;52028;50.658;14.004;2023-02-15T06:32:56;2.09;86.40
65421;DHT22;52028;50.658;14.004;2023-02-15T06:35:22;2.06;86.82
65421;DHT22;52028;50.658;14.004;2023-02-15T06:37:48;2.05;87.04
65421;DHT22;52028;50.658;14.004;2023-02-15T06:40:13;2.02;86.97
65421;DHT22;52028;50.658;14.004;2023-02-15T06:42:39;2.06;87.14
65421;DHT22;52028;50.658;14.004;2023-02-15T06:45:06;2.07;86.94
65421;DHT22;52028;50.658;14.004;2023-02-15T06:47:31;2.12;87.01
65421;DHT22;52028;50.658;14.004;2023-02-15T06:49:56;2.19;86.95
65421;DHT22;52028;50.658;14.004;2023-02-15T06:52:22;2.26;86.75
65421;DHT22;52028;50.658;14.004;2023-02-15T06:54:48;2.27;86.34
65421;DHT22;52028;50.658;14.004;2023-02-15T06:57:13;2.23;85.92
65421;DHT22;52028;50.658;14.004;2023-02-15T06:59:38;2.34;85.83
65421;DHT22;52028;50.658;14.004;2023-02-15T07:02:04;2.30;85.72
65421;DHT22;52028;50.658;14.004;2023-02-15T07:04:29;2.27;85.98
65421;DHT22;52028;50.658;14.004;2023-02-15T07:06:55;2.36;85.84
65421;DHT22;52028;50.658;14.004;2023-02-15T07:09:21;2.34;85.69
65421;DHT22;52028;50.658;14.004;2023-02-15T07:11:47;2.37;85.54
65421;DHT22;52028;50.658;14.004;2023-02-15T07:14:30;2.30;85.86
65421;DHT22;52028;50.658;14.004;2023-02-15T07:16:56;2.33;85.94
65421;DHT22;52028;50.658;14.004;2023-02-15T07:19:22;2.36;86.03
65421;DHT22;52028;50.658;14.004;2023-02-15T07:21:47;2.47;85.72
65421;DHT22;52028;50.658;14.004;2023-02-15T07:24:14;2.51;85.42
65421;DHT22;52028;50.658;14.004;2023-02-15T07:26:39;2.50;85.00
65421;DHT22;52028;50.658;14.004;2023-02-15T07:29:05;2.52;84.98
65421;DHT22;52028;50.658;14.004;2023-02-15T07:31:30;2.51;85.16
65421;DHT22;52028;50.658;14.004;2023-02-15T07:33:55;2.47;85.24
65421;DHT22;52028;50.658;14.004;2023-02-15T07:36:21;2.45;85.17
65421;DHT22;52028;50.658;14.004;2023-02-15T07:38:46;2.40;85.30
65421;DHT22;52028;50.658;14.004;2023-02-15T07:41:13;2.42;85.29
65421;DHT22;52028;50.658;14.004;2023-02-15T07:43:41;2.47;85.43
65421;DHT22;52028;50.658;14.004;2023-02-15T07:46:15;2.42;85.55
65421;DHT22;52028;50.658;14.004;2023-02-15T07:48:41;2.38;85.43
65421;DHT22;52028;50.658;14.004;2023-02-15T07:51:08;2.26;85.69
65421;DHT22;52028;50.658;14.004;2023-02-15T07:53:34;2.29;86.18
65421;DHT22;52028;50.658;14.004;2023-02-15T07:56:14;2.29;86.42
65421;DHT22;52028;50.658;14.004;2023-02-15T07:58:40;2.33;86.53
65421;DHT22;52028;50.658;14.004;2023-02-15T08:01:25;2.36;86.41
65421;DHT22;52028;50.658;14.004;2023-02-15T08:03:52;2.41;86.34
65421;DHT22;52028;50.658;14.004;2023-02-15T08:06:18;2.48;86.36
65421;DHT22;52028;50.658;14.004;2023-02-15T08:08:44;2.42;86.03
65421;DHT22;52028;50.658;14.004;2023-02-15T08:14:07;2.26;86.57
65421;DHT22;52028;50.658;14.004;2023-02-15T08:16:38;2.20;86.98
65421;DHT22;52028;50.658;14.004;2023-02-15T08:19:19;2.23;86.95
65421;DHT22;52028;50.658;14.004;2023-02-15T08:21:51;2.17;87.39
65421;DHT22;52028;50.658;14.004;2023-02-15T08:24:19;2.17;87.44
65421;DHT22;52028;50.658;14.004;2023-02-15T08:26:45;2.16;87.51
65421;DHT22;52028;50.658;14.004;2023-02-15T08:29:13;2.12;87.35
65421;DHT22;52028;50.658;14.004;2023-02-15T08:31:38;2.17;87.48
65421;DHT22;52028;50.658;14.004;2023-02-15T08:34:06;2.19;87.24
65421;DHT22;52028;50.658;14.004;2023-02-15T08:36:32;2.14;87.10
65421;DHT22;52028;50.658;14.004;2023-02-15T08:38:59;2.23;87.13
65421;DHT22;52028;50.658;14.004;2023-02-15T08:41:29;2.23;87.30
65421;DHT22;52028;50.658;14.004;2023-02-15T08:43:58;2.30;86.91
65421;DHT22;52028;50.658;14.004;2023-02-15T08:46:27;2.29;87.04
65421;DHT22;52028;50.658;14.004;2023-02-15T08:48:52;2.30;86.95
65421;DHT22;52028;50.658;14.004;2023-02-15T08:51:20;2.36;87.09
65421;DHT22;52028;50.658;14.004;2023-02-15T08:53:48;2.44;86.95
65421;DHT22;52028;50.658;14.004;2023-02-15T08:56:18;2.41;86.39
65421;DHT22;52028;50.658;14.004;2023-02-15T08:58:44;2.29;86.39
65421;DHT22;52028;50.658;14.004;2023-02-15T09:01:15;2.38;86.50
65421;DHT22;52028;50.658;14.004;2023-02-15T09:03:44;2.33;86.42
65421;DHT22;52028;50.658;14.004;2023-02-15T09:06:10;2.34;86.33
65421;DHT22;52028;50.658;14.004;2023-02-15T09:08:36;2.36;86.30
65421;DHT22;52028;50.658;14.004;2023-02-15T09:11:26;2.48;86.27
65421;DHT22;52028;50.658;14.004;2023-02-15T09:13:57;2.42;86.08
65421;DHT22;52028;50.658;14.004;2023-02-15T09:16:24;2.42;86.23
65421;DHT22;52028;50.658;14.004;2023-02-15T09:18:50;2.41;86.39
65421;DHT22;52028;50.658;14.004;2023-02-15T09:21:18;2.50;86.22
65421;DHT22;52028;50.658;14.004;2023-02-15T09:23:45;2.51;86.17
65421;DHT22;52028;50.658;14.004;2023-02-15T09:26:21;2.47;86.15
65421;DHT22;52028;50.658;14.004;2023-02-15T09:28:47;2.52;86.34
65421;DHT22;52028;50.658;14.004;2023-02-15T09:31:18;2.52;85.78
65421;DHT22;52028;50.658;14.004;2023-02-15T09:33:45;2.47;86.00
65421;DHT22;52028;50.658;14.004;2023-02-15T09:36:22;2.52;85.82
65421;DHT22;52028;50.658;14.004;2023-02-15T09:38:56;2.54;85.52
65421;DHT22;52028;50.658;14.004;2023-02-15T10:00:21;2.93;83.41
65421;DHT22;52028;50.658;14.004;2023-02-15T10:02:56;2.88;83.45
65421;DHT22;52028;50.658;14.004;2023-02-15T10:08:32;2.84;83.73
65421;DHT22;52028;50.658;14.004;2023-02-15T10:17:25;2.81;84.03
65421;DHT22;52028;50.658;14.004;2023-02-15T10:28:07;2.66;83.42
65421;DHT22;52028;50.658;14.004;2023-02-15T10:30:37;2.58;83.62
65421;DHT22;52028;50.658;14.004;2023-02-15T10:33:14;2.64;84.07
65421;DHT22;52028;50.658;14.004;2023-02-15T10:35:51;2.78;83.55
65421;DHT22;52028;50.658;14.004;2023-02-15T10:40:51;2.85;83.26
65421;DHT22;52028;50.658;14.004;2023-02-15T10:46:40;2.85;83.09
65421;DHT22;52028;50.658;14.004;2023-02-15T10:57:26;2.81;83.41
65421;DHT22;52028;50.658;14.004;2023-02-15T11:00:22;2.72;83.45
65421;DHT22;52028;50.658;14.004;2023-02-15T11:07:55;2.76;83.47
65421;DHT22;52028;50.658;14.004;2023-02-15T11:13:08;2.72;83.58
65421;DHT22;52028;50.658;14.004;2023-02-15T11:15:38;2.75;83.67
65421;DHT22;52028;50.658;14.004;2023-02-15T11:23:24;3.00;82.71
65421;DHT22;52028;50.658;14.004;2023-02-15T11:26:04;3.03;82.69
65421;DHT22;52028;50.658;14.004;2023-02-15T11:28:34;3.03;82.74
65421;DHT22;52028;50.658;14.004;2023-02-15T11:31:17;3.10;82.70
65421;DHT22;52028;50.658;14.004;2023-02-15T11:33:47;3.16;82.42
65421;DHT22;52028;50.658;14.004;2023-02-15T11:36:18;3.24;82.23
65421;DHT22;52028;50.658;14.004;2023-02-15T11:38:45;3.35;81.50
65421;DHT22;52028;50.658;14.004;2023-02-15T11:41:22;3.28;81.64
65421;DHT22;52028;50.658;14.004;2023-02-15T11:43:56;3.13;81.92
65421;DHT22;52028;50.658;14.004;2023-02-15T11:46:23;3.07;82.16
65421;DHT22;52028;50.658;14.004;2023-02-15T11:48:48;3.02;82.57
65421;DHT22;52028;50.658;14.004;2023-02-15T11:51:16;3.10;82.58
65421;DHT22;52028;50.658;14.004;2023-02-15T11:53:43;3.21;82.15
65421;DHT22;52028;50.658;14.004;2023-02-15T11:56:25;3.07;82.42
65421;DHT22;52028;50.658;14.004;2023-02-15T11:58:55;3.07;82.58
65421;DHT22;52028;50.658;14.004;2023-02-15T12:04:02;2.86;83.04
65421;DHT22;52028;50.658;14.004;2023-02-15T12:06:35;2.85;83.21
65421;DHT22;52028;50.658;14.004;2023-02-15T12:11:39;3.00;82.88
65421;DHT22;52028;50.658;14.004;2023-02-15T12:14:10;3.00;82.97
65421;DHT22;52028;50.658;14.004;2023-02-15T12:16:48;3.06;82.53
65421;DHT22;52028;50.658;14.004;2023-02-15T12:19:28;3.09;82.61
65421;DHT22;52028;50.658;14.004;2023-02-15T12:21:56;3.14;82.50
65421;DHT22;52028;50.658;14.004;2023-02-15T12:24:26;3.04;82.55
65421;DHT22;52028;50.658;14.004;2023-02-15T12:27:01;2.93;82.92
65421;DHT22;52028;50.658;14.004;2023-02-15T12:29:30;2.97;83.24
65421;DHT22;52028;50.658;14.004;2023-02-15T12:31:56;3.03;82.73
65421;DHT22;52028;50.658;14.004;2023-02-15T12:34:30;3.06;82.87
65421;DHT22;52028;50.658;14.004;2023-02-15T12:36:59;3.04;82.89
65421;DHT22;52028;50.658;14.004;2023-02-15T12:39:27;3.02;82.89
65421;DHT22;52028;50.658;14.004;2023-02-15T12:44:26;3.10;82.76
65421;DHT22;52028;50.658;14.004;2023-02-15T12:49:41;3.16;82.55
65421;DHT22;52028;50.658;14.004;2023-02-15T12:54:48;3.03;82.97
65421;DHT22;52028;50.658;14.004;2023-02-15T12:57:30;3.02;82.80
65421;DHT22;52028;50.658;14.004;2023-02-15T13:02:30;2.93;83.03
65421;DHT22;52028;50.658;14.004;2023-02-15T13:04:56;2.89;83.19
65421;DHT22;52028;50.658;14.004;2023-02-15T13:07:25;2.99;83.14
65421;DHT22;52028;50.658;14.004;2023-02-15T13:09:54;3.06;82.77
65421;DHT22;52028;50.658;14.004;2023-02-15T13:12:25;2.99;82.79
65421;DHT22;52028;50.658;14.004;2023-02-15T13:14:56;3.00;82.95
65421;DHT22;52028;50.658;14.004;2023-02-15T13:17:28;3.07;82.95
65421;DHT22;52028;50.658;14.004;2023-02-15T13:20:05;3.10;82.64
65421;DHT22;52028;50.658;14.004;2023-02-15T13:22:39;3.16;82.52
65421;DHT22;52028;50.658;14.004;2023-02-15T13:27:42;3.40;81.48
65421;DHT22;52028;50.658;14.004;2023-02-15T13:30:20;3.38;81.51
65421;DHT22;52028;50.658;14.004;2023-02-15T13:32:49;3.35;81.58
65421;DHT22;52028;50.658;14.004;2023-02-15T13:35:17;3.42;81.51
65421;DHT22;52028;50.658;14.004;2023-02-15T13:38:09;3.32;81.80
65421;DHT22;52028;50.658;14.004;2023-02-15T13:40:46;3.31;82.00
65421;DHT22;52028;50.658;14.004;2023-02-15T13:49:13;3.12;82.28
65421;DHT22;52028;50.658;14.004;2023-02-15T13:52:05;3.16;82.35
65421;DHT22;52028;50.658;14.004;2023-02-15T13:54:44;3.13;82.25
65421;DHT22;52028;50.658;14.004;2023-02-15T13:57:22;3.09;82.58
65421;DHT22;52028;50.658;14.004;2023-02-15T14:13:38;3.41;81.80
65421;DHT22;52028;50.658;14.004;2023-02-15T14:16:30;3.35;81.55
65421;DHT22;52028;50.658;14.004;2023-02-15T14:19:25;3.24;81.97
65421;DHT22;52028;50.658;14.004;2023-02-15T14:22:05;3.14;82.74
65421;DHT22;52028;50.658;14.004;2023-02-15T14:24:42;3.16;82.42
65421;DHT22;52028;50.658;14.004;2023-02-15T14:30:19;3.20;82.65
65421;DHT22;52028;50.658;14.004;2023-02-15T14:32:49;3.23;82.44
65421;DHT22;52028;50.658;14.004;2023-02-15T14:35:22;3.38;82.09
65421;DHT22;52028;50.658;14.004;2023-02-15T14:38:04;3.47;81.69
65421;DHT22;52028;50.658;14.004;2023-02-15T14:46:38;3.50;80.59
65421;DHT22;52028;50.658;14.004;2023-02-15T14:59:35;3.20;82.34
65421;DHT22;52028;50.658;14.004;2023-02-15T15:04:36;3.09;82.14
65421;DHT22;52028;50.658;14.004;2023-02-15T15:09:38;3.13;82.59
65421;DHT22;52028;50.658;14.004;2023-02-15T15:12:15;3.26;82.44
65421;DHT22;52028;50.658;14.004;2023-02-15T15:14:44;3.31;81.88
65421;DHT22;52028;50.658;14.004;2023-02-15T15:19:56;3.21;81.83
65421;DHT22;52028;50.658;14.004;2023-02-15T15:22:24;3.17;81.81
65421;DHT22;52028;50.658;14.004;2023-02-15T15:24:50;2.97;82.42
65421;DHT22;52028;50.658;14.004;2023-02-15T15:49:16;2.30;84.90
65421;DHT22;52028;50.658;14.004;2023-02-15T15:51:43;2.31;84.96
65421;DHT22;52028;50.658;14.004;2023-02-15T15:54:16;2.30;84.94
65421;DHT22;52028;50.658;14.004;2023-02-15T15:56:45;2.20;85.24
65421;DHT22;52028;50.658;14.004;2023-02-15T15:59:18;2.17;85.49
65421;DHT22;52028;50.658;14.004;2023-02-15T16:01:45;2.17;85.71
65421;DHT22;52028;50.658;14.004;2023-02-15T16:04:32;2.17;85.72
65421;DHT22;52028;50.658;14.004;2023-02-15T16:07:05;2.19;85.65
65421;DHT22;52028;50.658;14.004;2023-02-15T16:09:38;2.20;85.49
65421;DHT22;52028;50.658;14.004;2023-02-15T16:12:14;2.19;85.49
65421;DHT22;52028;50.658;14.004;2023-02-15T16:14:41;2.16;85.68
65421;DHT22;52028;50.658;14.004;2023-02-15T16:17:25;2.07;85.54
65421;DHT22;52028;50.658;14.004;2023-02-15T16:19:53;2.09;85.71
65421;DHT22;52028;50.658;14.004;2023-02-15T16:22:23;2.14;85.57
65421;DHT22;52028;50.658;14.004;2023-02-15T16:27:44;2.10;85.66
65421;DHT22;52028;50.658;14.004;2023-02-15T16:30:26;2.12;85.72
65421;DHT22;52028;50.658;14.004;2023-02-15T16:33:12;2.13;85.74
65421;DHT22;52028;50.658;14.004;2023-02-15T16:35:40;2.12;85.67
65421;DHT22;52028;50.658;14.004;2023-02-15T16:38:09;2.02;85.91
65421;DHT22;52028;50.658;14.004;2023-02-15T16:40:44;2.01;86.10
65421;DHT22;52028;50.658;14.004;2023-02-15T16:43:15;2.02;86.17
65421;DHT22;52028;50.658;14.004;2023-02-15T16:45:42;2.02;86.06
65421;DHT22;52028;50.658;14.004;2023-02-15T16:48:15;2.14;85.86
65421;DHT22;52028;50.658;14.004;2023-02-15T16:50:47;2.07;85.88
65421;DHT22;52028;50.658;14.004;2023-02-15T16:53:18;2.19;85.70
65421;DHT22;52028;50.658;14.004;2023-02-15T16:55:49;2.13;85.58
65421;DHT22;52028;50.658;14.004;2023-02-15T16:58:16;2.12;85.69
65421;DHT22;52028;50.658;14.004;2023-02-15T17:00:43;2.03;85.89
65421;DHT22;52028;50.658;14.004;2023-02-15T17:05:57;1.98;86.19
65421;DHT22;52028;50.658;14.004;2023-02-15T17:13:25;1.83;86.65
65421;DHT22;52028;50.658;14.004;2023-02-15T17:18:28;1.81;86.71
65421;DHT22;52028;50.658;14.004;2023-02-15T17:20:58;1.82;86.71
65421;DHT22;52028;50.658;14.004;2023-02-15T17:23:31;1.86;86.42
65421;DHT22;52028;50.658;14.004;2023-02-15T17:25:58;1.83;86.52
65421;DHT22;52028;50.658;14.004;2023-02-15T17:28:30;1.74;86.63
65421;DHT22;52028;50.658;14.004;2023-02-15T17:30:59;1.79;86.66
65421;DHT22;52028;50.658;14.004;2023-02-15T17:36:23;1.81;86.51
65421;DHT22;52028;50.658;14.004;2023-02-15T17:43:48;1.82;86.32
65421;DHT22;52028;50.658;14.004;2023-02-15T17:46:13;1.75;86.39
65421;DHT22;52028;50.658;14.004;2023-02-15T17:48:41;1.75;86.45
65421;DHT22;52028;50.658;14.004;2023-02-15T17:51:12;1.79;86.33
65421;DHT22;52028;50.658;14.004;2023-02-15T17:53:37;1.79;86.43
65421;DHT22;52028;50.658;14.004;2023-02-15T17:56:03;1.82;86.28
65421;DHT22;52028;50.658;14.004;2023-02-15T17:58:38;1.78;86.43
65421;DHT22;52028;50.658;14.004;2023-02-15T18:01:06;1.79;86.40
65421;DHT22;52028;50.658;14.004;2023-02-15T18:03:52;1.81;86.52
65421;DHT22;52028;50.658;14.004;2023-02-15T18:06:40;1.79;86.42
65421;DHT22;52028;50.658;14.004;2023-02-15T18:09:25;1.83;86.36
65421;DHT22;52028;50.658;14.004;2023-02-15T18:14:45;1.94;86.02
65421;DHT22;52028;50.658;14.004;2023-02-15T18:17:13;1.94;85.82
65421;DHT22;52028;50.658;14.004;2023-02-15T18:19:40;1.99;85.18
65421;DHT22;52028;50.658;14.004;2023-02-15T18:22:14;1.96;85.41
65421;DHT22;52028;50.658;14.004;2023-02-15T18:24:40;1.96;85.52
65421;DHT22;52028;50.658;14.004;2023-02-15T18:27:10;1.95;85.49
65421;DHT22;52028;50.658;14.004;2023-02-15T18:29:36;1.92;85.40
65421;DHT22;52028;50.658;14.004;2023-02-15T18:32:14;1.89;85.51
65421;DHT22;52028;50.658;14.004;2023-02-15T18:34:41;1.94;85.56
65421;DHT22;52028;50.658;14.004;2023-02-15T18:37:13;1.95;85.55
65421;DHT22;52028;50.658;14.004;2023-02-15T18:39:41;1.86;85.92
65421;DHT22;52028;50.658;14.004;2023-02-15T18:44:43;1.71;86.69
65421;DHT22;52028;50.658;14.004;2023-02-15T18:47:09;1.68;86.76
65421;DHT22;52028;50.658;14.004;2023-02-15T18:49:34;1.65;86.77
65421;DHT22;52028;50.658;14.004;2023-02-15T18:52:00;1.61;87.05
65421;DHT22;52028;50.658;14.004;2023-02-15T18:54:26;1.67;86.95
65421;DHT22;52028;50.658;14.004;2023-02-15T18:56:56;1.71;86.86
65421;DHT22;52028;50.658;14.004;2023-02-15T18:59:26;1.72;86.73
65421;DHT22;52028;50.658;14.004;2023-02-15T19:01:52;1.65;86.83
65421;DHT22;52028;50.658;14.004;2023-02-15T19:04:18;1.68;86.77
65421;DHT22;52028;50.658;14.004;2023-02-15T19:06:45;1.69;86.53
65421;DHT22;52028;50.658;14.004;2023-02-15T19:09:19;1.67;86.73
65421;DHT22;52028;50.658;14.004;2023-02-15T19:11:49;1.64;86.75
65421;DHT22;52028;50.658;14.004;2023-02-15T19:14:27;1.64;86.92
65421;DHT22;52028;50.658;14.004;2023-02-15T19:16:53;1.67;86.75
65421;DHT22;52028;50.658;14.004;2023-02-15T19:19:18;1.77;86.59